createdAt,value
2022-10-26T00:00:11.578Z,11.96
2022-10-26T00:00:32.634Z,11.97
2022-10-26T00:00:53.684Z,11.96
2022-10-26T00:01:14.866Z,11.97
2022-10-26T00:01:36.066Z,11.96
2022-10-26T00:01:57.276Z,11.97
2022-10-26T00:02:18.498Z,11.96
2022-10-26T00:02:39.718Z,11.96
2022-10-26T00:03:00.778Z,11.97
2022-10-26T00:03:21.826Z,11.97
2022-10-26T00:03:42.884Z,11.96
2022-10-26T00:04:03.961Z,11.97
2022-10-26T00:04:24.981Z,11.98
2022-10-26T00:04:46.058Z,11.97
2022-10-26T00:05:07.107Z,11.98
2022-10-26T00:05:28.156Z,11.98
2022-10-26T00:05:49.258Z,11.98
2022-10-26T00:06:10.275Z,11.98
2022-10-26T00:06:31.325Z,11.98
2022-10-26T00:06:52.379Z,11.98
2022-10-26T00:07:13.443Z,11.99
2022-10-26T00:07:34.549Z,11.98
2022-10-26T00:07:55.592Z,11.99
2022-10-26T00:08:16.626Z,11.99
2022-10-26T00:08:37.699Z,11.99
2022-10-26T00:08:58.721Z,11.99
2022-10-26T00:09:19.780Z,12.00
2022-10-26T00:09:40.836Z,11.99
2022-10-26T00:10:01.930Z,11.99
2022-10-26T00:10:22.948Z,11.99
2022-10-26T00:10:44.002Z,11.99
2022-10-26T00:11:05.047Z,11.99
2022-10-26T00:11:26.098Z,11.98
2022-10-26T00:11:47.154Z,11.99
2022-10-26T00:12:08.204Z,11.99
2022-10-26T00:12:50.708Z,11.99
2022-10-26T00:13:11.917Z,11.99
2022-10-26T00:13:32.974Z,11.99
2022-10-26T00:13:54.032Z,11.99
2022-10-26T00:14:15.084Z,12.00
2022-10-26T00:14:36.136Z,12.00
2022-10-26T00:14:57.181Z,12.00
2022-10-26T00:15:18.234Z,12.00
2022-10-26T00:15:39.298Z,12.00
2022-10-26T00:16:21.363Z,12.01
2022-10-26T00:16:42.414Z,12.00
2022-10-26T00:17:03.498Z,12.00
2022-10-26T00:17:24.546Z,12.01
2022-10-26T00:17:45.780Z,12.00
2022-10-26T00:18:06.857Z,12.01
2022-10-26T00:18:27.906Z,12.00
2022-10-26T00:18:48.958Z,12.00
2022-10-26T00:19:10.029Z,12.01
2022-10-26T00:19:31.064Z,12.01
2022-10-26T00:19:52.112Z,12.01
2022-10-26T00:20:13.199Z,12.01
2022-10-26T00:20:34.265Z,12.01
2022-10-26T00:20:55.320Z,12.02
2022-10-26T00:21:16.381Z,12.01
2022-10-26T00:21:37.434Z,12.02
2022-10-26T00:21:58.500Z,12.02
2022-10-26T00:22:19.572Z,12.03
2022-10-26T00:22:40.638Z,12.03
2022-10-26T00:23:01.699Z,12.02
2022-10-26T00:23:22.749Z,12.03
2022-10-26T00:23:43.817Z,12.03
2022-10-26T00:24:04.909Z,12.03
2022-10-26T00:24:25.951Z,12.03
2022-10-26T00:24:47.005Z,12.03
2022-10-26T00:25:08.066Z,12.04
2022-10-26T00:25:29.129Z,12.04
2022-10-26T00:25:50.188Z,12.04
2022-10-26T00:26:11.235Z,12.05
2022-10-26T00:26:32.285Z,12.04
2022-10-26T00:26:53.332Z,12.04
2022-10-26T00:27:14.415Z,12.05
2022-10-26T00:27:35.439Z,12.05
2022-10-26T00:27:56.516Z,12.04
2022-10-26T00:28:17.560Z,12.04
2022-10-26T00:28:38.622Z,12.05
2022-10-26T00:28:59.675Z,12.05
2022-10-26T00:29:20.750Z,12.05
2022-10-26T00:29:41.797Z,12.05
2022-10-26T00:30:02.844Z,12.05
2022-10-26T00:30:23.897Z,12.05
2022-10-26T00:30:44.956Z,12.05
2022-10-26T00:31:05.999Z,12.05
2022-10-26T00:31:27.073Z,12.05
2022-10-26T00:31:48.115Z,12.06
2022-10-26T00:32:09.170Z,12.06
2022-10-26T00:32:30.312Z,12.06
2022-10-26T00:32:51.417Z,12.06
2022-10-26T00:33:12.523Z,12.06
2022-10-26T00:33:33.574Z,12.06
2022-10-26T00:33:54.620Z,12.06
2022-10-26T00:34:15.692Z,12.06
2022-10-26T00:34:36.744Z,12.07
2022-10-26T00:35:06.058Z,12.06
2022-10-26T00:35:44.596Z,12.08
2022-10-26T00:35:51.730Z,12.07
2022-10-26T00:36:12.779Z,12.07
2022-10-26T00:36:33.838Z,12.07
2022-10-26T00:36:54.878Z,12.06
2022-10-26T00:37:15.955Z,12.07
2022-10-26T00:37:37.000Z,12.07
2022-10-26T00:37:58.054Z,12.07
2022-10-26T00:38:19.116Z,12.07
2022-10-26T00:38:40.181Z,12.07
2022-10-26T00:39:01.228Z,12.08
2022-10-26T00:39:22.298Z,12.07
2022-10-26T00:39:43.361Z,12.07
2022-10-26T00:40:04.414Z,12.08
2022-10-26T00:40:25.449Z,12.09
2022-10-26T00:40:46.580Z,12.08
2022-10-26T00:41:07.594Z,12.08
2022-10-26T00:41:28.642Z,12.09
2022-10-26T00:41:49.698Z,12.09
2022-10-26T00:42:10.767Z,12.09
2022-10-26T00:42:31.844Z,12.10
2022-10-26T00:42:52.866Z,12.10
2022-10-26T00:43:14.033Z,12.09
2022-10-26T00:43:35.083Z,12.10
2022-10-26T00:43:56.134Z,12.09
2022-10-26T00:44:17.193Z,12.10
2022-10-26T00:44:38.256Z,12.10
2022-10-26T00:44:59.323Z,12.11
2022-10-26T00:45:20.358Z,12.10
2022-10-26T00:45:41.416Z,12.10
2022-10-26T00:46:02.510Z,12.11
2022-10-26T00:46:23.561Z,12.10
2022-10-26T00:46:44.609Z,12.10
2022-10-26T00:47:05.677Z,12.11
2022-10-26T00:47:26.725Z,12.11
2022-10-26T00:47:47.775Z,12.11
2022-10-26T00:48:08.839Z,12.11
2022-10-26T00:48:29.898Z,12.11
2022-10-26T00:48:50.989Z,12.12
2022-10-26T00:49:12.080Z,12.12
2022-10-26T00:49:33.128Z,12.12
2022-10-26T00:49:54.174Z,12.12
2022-10-26T00:50:15.215Z,12.12
2022-10-26T00:50:36.265Z,12.13
2022-10-26T00:50:57.359Z,12.13
2022-10-26T00:51:18.380Z,12.12
2022-10-26T00:51:39.429Z,12.12
2022-10-26T00:52:00.479Z,12.13
2022-10-26T00:52:21.560Z,12.13
2022-10-26T00:52:42.592Z,12.13
2022-10-26T00:53:03.646Z,12.13
2022-10-26T00:53:24.694Z,12.13
2022-10-26T00:53:45.767Z,12.13
2022-10-26T00:54:06.832Z,12.14
2022-10-26T00:54:27.875Z,12.13
2022-10-26T00:54:48.910Z,12.14
2022-10-26T00:55:09.966Z,12.13
2022-10-26T00:55:31.018Z,12.14
2022-10-26T00:55:52.071Z,12.14
2022-10-26T00:56:13.112Z,12.14
2022-10-26T00:56:34.195Z,12.14
2022-10-26T00:56:55.226Z,12.14
2022-10-26T00:57:16.278Z,12.14
2022-10-26T00:57:58.336Z,12.15
2022-10-26T00:58:19.398Z,12.15
2022-10-26T00:58:40.505Z,12.15
2022-10-26T00:59:01.561Z,12.16
2022-10-26T00:59:22.616Z,12.16
2022-10-26T00:59:43.661Z,12.15
2022-10-26T01:00:04.707Z,12.17
2022-10-26T01:00:25.784Z,12.16
2022-10-26T01:00:46.830Z,12.17
2022-10-26T01:01:07.937Z,12.17
2022-10-26T01:01:29.009Z,12.17
2022-10-26T01:01:50.110Z,12.18
2022-10-26T01:02:11.129Z,12.18
2022-10-26T01:02:32.182Z,12.18
2022-10-26T01:02:53.235Z,12.18
2022-10-26T01:03:14.377Z,12.19
2022-10-26T01:03:35.703Z,12.20
2022-10-26T01:03:56.839Z,12.19
2022-10-26T01:04:17.939Z,12.20
2022-10-26T01:04:38.974Z,12.20
2022-10-26T01:05:00.098Z,12.20
2022-10-26T01:05:21.134Z,12.20
2022-10-26T01:05:42.203Z,12.20
2022-10-26T01:06:03.262Z,12.21
2022-10-26T01:06:24.317Z,12.21
2022-10-26T01:06:45.371Z,12.21
2022-10-26T01:07:06.439Z,12.21
2022-10-26T01:07:27.499Z,12.21
2022-10-26T01:07:48.809Z,12.22
2022-10-26T01:08:10.015Z,12.22
2022-10-26T01:08:31.067Z,12.22
2022-10-26T01:08:52.120Z,12.23
2022-10-26T01:09:13.178Z,12.23
2022-10-26T01:09:34.347Z,12.23
2022-10-26T01:09:55.403Z,12.24
2022-10-26T01:10:16.447Z,12.24
2022-10-26T01:10:37.500Z,12.24
2022-10-26T01:10:58.550Z,12.24
2022-10-26T01:11:19.629Z,12.24
2022-10-26T01:11:40.683Z,12.24
2022-10-26T01:12:01.732Z,12.25
2022-10-26T01:12:22.793Z,12.25
2022-10-26T01:12:43.842Z,12.26
2022-10-26T01:13:04.893Z,12.25
2022-10-26T01:13:25.939Z,12.26
2022-10-26T01:13:47.021Z,12.26
2022-10-26T01:14:08.059Z,12.27
2022-10-26T01:14:29.133Z,12.28
2022-10-26T01:14:50.208Z,12.28
2022-10-26T01:15:11.279Z,12.29
2022-10-26T01:15:32.317Z,12.28
2022-10-26T01:15:53.384Z,12.28
2022-10-26T01:16:14.470Z,12.29
2022-10-26T01:16:38.326Z,12.29
2022-10-26T01:17:00.615Z,12.31
2022-10-26T01:17:21.677Z,12.30
2022-10-26T01:17:42.718Z,12.30
2022-10-26T01:18:03.770Z,12.30
2022-10-26T01:18:24.871Z,12.31
2022-10-26T01:18:45.918Z,12.31
2022-10-26T01:19:06.972Z,12.32
2022-10-26T01:19:28.010Z,12.31
2022-10-26T01:19:49.063Z,12.32
2022-10-26T01:20:10.246Z,12.32
2022-10-26T01:20:31.304Z,12.33
2022-10-26T01:20:52.353Z,12.33
2022-10-26T01:21:13.410Z,12.33
2022-10-26T01:21:34.462Z,12.33
2022-10-26T01:21:55.502Z,12.33
2022-10-26T01:22:16.555Z,12.34
2022-10-26T01:22:37.613Z,12.34
2022-10-26T01:22:58.672Z,12.34
2022-10-26T01:23:19.720Z,12.34
2022-10-26T01:23:40.806Z,12.34
2022-10-26T01:24:01.822Z,12.35
2022-10-26T01:24:22.891Z,12.35
2022-10-26T01:24:43.933Z,12.35
2022-10-26T01:25:05.001Z,12.35
2022-10-26T01:25:26.057Z,12.36
2022-10-26T01:25:47.116Z,12.36
2022-10-26T01:26:08.169Z,12.36
2022-10-26T01:26:29.241Z,12.36
2022-10-26T01:26:50.272Z,12.37
2022-10-26T01:27:11.323Z,12.37
2022-10-26T01:27:32.374Z,12.38
2022-10-26T01:27:53.456Z,12.37
2022-10-26T01:28:14.488Z,12.37
2022-10-26T01:28:35.549Z,12.38
2022-10-26T01:28:56.584Z,12.38
2022-10-26T01:29:17.640Z,12.38
2022-10-26T01:29:38.714Z,12.38
2022-10-26T01:29:59.757Z,12.39
2022-10-26T01:30:20.826Z,12.39
2022-10-26T01:30:41.879Z,12.39
2022-10-26T01:31:02.928Z,12.39
2022-10-26T01:31:23.982Z,12.39
2022-10-26T01:31:45.046Z,12.40
2022-10-26T01:32:06.098Z,12.40
2022-10-26T01:32:27.159Z,12.40
2022-10-26T01:32:48.195Z,12.40
2022-10-26T01:33:09.248Z,12.40
2022-10-26T01:33:30.334Z,12.40
2022-10-26T01:33:51.369Z,12.40
2022-10-26T01:34:12.433Z,12.40
2022-10-26T01:34:33.480Z,12.41
2022-10-26T01:34:54.523Z,12.40
2022-10-26T01:35:15.573Z,12.41
2022-10-26T01:35:36.656Z,12.41
2022-10-26T01:35:57.716Z,12.41
2022-10-26T01:36:18.751Z,12.41
2022-10-26T01:36:39.803Z,12.41
2022-10-26T01:37:00.845Z,12.42
2022-10-26T01:37:21.900Z,12.42
2022-10-26T01:37:42.968Z,12.42
2022-10-26T01:38:04.016Z,12.42
2022-10-26T01:38:25.074Z,12.43
2022-10-26T01:38:46.103Z,12.42
2022-10-26T01:39:07.170Z,12.43
2022-10-26T01:39:28.210Z,12.42
2022-10-26T01:39:49.258Z,12.42
2022-10-26T01:40:10.379Z,12.42
2022-10-26T01:40:31.508Z,12.42
2022-10-26T01:40:52.556Z,12.42
2022-10-26T01:41:13.605Z,12.42
2022-10-26T01:41:34.649Z,12.42
2022-10-26T01:41:55.709Z,12.41
2022-10-26T01:42:16.779Z,12.41
2022-10-26T01:42:37.830Z,12.42
2022-10-26T01:42:58.879Z,12.41
2022-10-26T01:43:19.917Z,12.42
2022-10-26T01:43:40.980Z,12.42
2022-10-26T01:44:02.042Z,12.41
2022-10-26T01:44:23.084Z,12.42
2022-10-26T01:44:44.145Z,12.42
2022-10-26T01:45:05.195Z,12.42
2022-10-26T01:45:26.239Z,12.43
2022-10-26T01:45:47.310Z,12.42
2022-10-26T01:46:08.429Z,12.43
2022-10-26T01:46:29.508Z,12.44
2022-10-26T01:46:50.571Z,12.44
2022-10-26T01:47:11.615Z,12.44
2022-10-26T01:47:32.669Z,12.43
2022-10-26T01:47:53.709Z,12.44
2022-10-26T01:48:14.765Z,12.44
2022-10-26T01:48:35.835Z,12.44
2022-10-26T01:48:56.867Z,12.43
2022-10-26T01:49:17.912Z,12.45
2022-10-26T01:49:38.965Z,12.45
2022-10-26T01:50:00.013Z,12.44
2022-10-26T01:50:21.109Z,12.45
2022-10-26T01:50:42.121Z,12.45
2022-10-26T01:51:03.298Z,12.45
2022-10-26T01:51:24.364Z,12.46
2022-10-26T01:51:45.402Z,12.45
2022-10-26T01:52:06.455Z,12.46
2022-10-26T01:52:27.538Z,12.45
2022-10-26T01:52:48.579Z,12.46
2022-10-26T01:53:09.626Z,12.46
2022-10-26T01:53:30.679Z,12.46
2022-10-26T01:53:51.724Z,12.45
2022-10-26T01:54:12.773Z,12.46
2022-10-26T01:54:33.844Z,12.46
2022-10-26T01:54:54.891Z,12.47
2022-10-26T01:55:15.919Z,12.46
2022-10-26T01:55:36.973Z,12.46
2022-10-26T01:55:58.144Z,12.46
2022-10-26T01:56:19.204Z,12.46
2022-10-26T01:56:40.255Z,12.47
2022-10-26T01:57:01.318Z,12.47
2022-10-26T01:57:22.373Z,12.47
2022-10-26T01:57:43.543Z,12.47
2022-10-26T01:58:04.546Z,12.46
2022-10-26T01:58:25.624Z,12.47
2022-10-26T01:58:46.679Z,12.47
2022-10-26T01:59:07.721Z,12.47
2022-10-26T01:59:28.782Z,12.47
2022-10-26T01:59:49.859Z,12.48
2022-10-26T02:00:10.894Z,12.47
2022-10-26T02:00:31.966Z,12.47
2022-10-26T02:00:53.006Z,12.48
2022-10-26T02:01:14.242Z,12.47
2022-10-26T02:01:35.308Z,12.47
2022-10-26T02:01:56.352Z,12.47
2022-10-26T02:02:17.396Z,12.47
2022-10-26T02:02:38.443Z,12.47
2022-10-26T02:02:59.491Z,12.48
2022-10-26T02:03:20.567Z,12.47
2022-10-26T02:03:41.662Z,12.47
2022-10-26T02:04:02.814Z,12.47
2022-10-26T02:04:45.895Z,12.48
2022-10-26T02:05:06.944Z,12.48
2022-10-26T02:05:27.993Z,12.48
2022-10-26T02:05:49.051Z,12.48
2022-10-26T02:06:10.101Z,12.48
2022-10-26T02:06:31.275Z,12.48
2022-10-26T02:06:52.349Z,12.48
2022-10-26T02:07:13.397Z,12.48
2022-10-26T02:07:34.443Z,12.48
2022-10-26T02:07:55.490Z,12.48
2022-10-26T02:08:16.537Z,12.48
2022-10-26T02:08:37.587Z,12.49
2022-10-26T02:08:58.639Z,12.48
2022-10-26T02:09:19.689Z,12.49
2022-10-26T02:09:40.762Z,12.49
2022-10-26T02:10:01.807Z,12.50
2022-10-26T02:10:22.842Z,12.49
2022-10-26T02:10:43.906Z,12.50
2022-10-26T02:11:04.947Z,12.50
2022-10-26T02:11:25.993Z,12.50
2022-10-26T02:11:47.095Z,12.51
2022-10-26T02:12:08.143Z,12.51
2022-10-26T02:12:29.192Z,12.51
2022-10-26T02:12:50.238Z,12.51
2022-10-26T02:13:11.285Z,12.52
2022-10-26T02:13:32.351Z,12.52
2022-10-26T02:13:53.401Z,12.52
2022-10-26T02:14:35.453Z,12.53
2022-10-26T02:14:56.504Z,12.53
2022-10-26T02:15:17.565Z,12.53
2022-10-26T02:15:38.630Z,12.53
2022-10-26T02:15:59.688Z,12.54
2022-10-26T02:16:20.735Z,12.54
2022-10-26T02:16:41.783Z,12.53
2022-10-26T02:17:02.846Z,12.54
2022-10-26T02:17:23.900Z,12.54
2022-10-26T02:17:44.949Z,12.54
2022-10-26T02:18:06.005Z,12.55
2022-10-26T02:18:27.043Z,12.54
2022-10-26T02:18:48.117Z,12.53
2022-10-26T02:19:09.146Z,12.54
2022-10-26T02:19:30.191Z,12.54
2022-10-26T02:19:51.245Z,12.54
2022-10-26T02:20:12.299Z,12.53
2022-10-26T02:20:33.378Z,12.54
2022-10-26T02:20:54.426Z,12.53
2022-10-26T02:21:15.458Z,12.53
2022-10-26T02:21:36.518Z,12.53
2022-10-26T02:21:57.571Z,12.53
2022-10-26T02:22:18.634Z,12.54
2022-10-26T02:22:39.687Z,12.54
2022-10-26T02:23:00.739Z,12.54
2022-10-26T02:23:21.811Z,12.54
2022-10-26T02:23:42.842Z,12.54
2022-10-26T02:24:03.961Z,12.54
2022-10-26T02:24:25.007Z,12.54
2022-10-26T02:24:46.090Z,12.54
2022-10-26T02:25:07.113Z,12.54
2022-10-26T02:25:28.189Z,12.54
2022-10-26T02:25:49.231Z,12.55
2022-10-26T02:26:10.277Z,12.55
2022-10-26T02:26:31.393Z,12.56
2022-10-26T02:26:52.419Z,12.55
2022-10-26T02:27:13.468Z,12.55
2022-10-26T02:27:34.531Z,12.56
2022-10-26T02:27:55.577Z,12.55
2022-10-26T02:28:16.631Z,12.55
2022-10-26T02:28:37.693Z,12.55
2022-10-26T02:28:58.739Z,12.55
2022-10-26T02:29:19.791Z,12.55
2022-10-26T02:29:40.849Z,12.55
2022-10-26T02:30:01.891Z,12.55
2022-10-26T02:30:22.948Z,12.56
2022-10-26T02:30:43.977Z,12.56
2022-10-26T02:31:05.050Z,12.56
2022-10-26T02:31:26.110Z,12.56
2022-10-26T02:31:47.143Z,12.56
2022-10-26T02:32:08.193Z,12.56
2022-10-26T02:32:29.346Z,12.56
2022-10-26T02:32:50.548Z,12.56
2022-10-26T02:33:11.580Z,12.56
2022-10-26T02:33:32.650Z,12.56
2022-10-26T02:33:53.712Z,12.55
2022-10-26T02:34:14.791Z,12.56
2022-10-26T02:34:35.802Z,12.56
2022-10-26T02:34:56.849Z,12.56
2022-10-26T02:35:17.908Z,12.56
2022-10-26T02:35:38.970Z,12.56
2022-10-26T02:36:00.008Z,12.55
2022-10-26T02:36:21.062Z,12.55
2022-10-26T02:36:42.107Z,12.55
2022-10-26T02:37:03.157Z,12.56
2022-10-26T02:37:24.236Z,12.55
2022-10-26T02:37:45.399Z,12.55
2022-10-26T02:38:06.626Z,12.55
2022-10-26T02:38:27.667Z,12.55
2022-10-26T02:38:48.721Z,12.55
2022-10-26T02:39:09.776Z,12.54
2022-10-26T02:39:30.822Z,12.54
2022-10-26T02:39:51.871Z,12.54
2022-10-26T02:40:12.932Z,12.54
2022-10-26T02:40:33.968Z,12.54
2022-10-26T02:40:55.013Z,12.55
2022-10-26T02:41:16.073Z,12.54
2022-10-26T02:41:37.120Z,12.54
2022-10-26T02:41:58.159Z,12.54
2022-10-26T02:42:19.207Z,12.55
2022-10-26T02:42:40.393Z,12.54
2022-10-26T02:43:01.440Z,12.54
2022-10-26T02:43:22.583Z,12.54
2022-10-26T02:43:43.597Z,12.54
2022-10-26T02:44:04.651Z,12.54
2022-10-26T02:44:25.723Z,12.53
2022-10-26T02:44:46.933Z,12.54
2022-10-26T02:45:07.947Z,12.54
2022-10-26T02:45:29.017Z,12.54
2022-10-26T02:45:50.063Z,12.54
2022-10-26T02:46:11.119Z,12.53
2022-10-26T02:46:32.169Z,12.54
2022-10-26T02:46:53.217Z,12.53
2022-10-26T02:47:14.280Z,12.53
2022-10-26T02:47:35.475Z,12.54
2022-10-26T02:47:56.537Z,12.54
2022-10-26T02:48:17.617Z,12.54
2022-10-26T02:48:38.670Z,12.53
2022-10-26T02:48:59.730Z,12.54
2022-10-26T02:49:20.776Z,12.53
2022-10-26T02:49:41.827Z,12.53
2022-10-26T02:50:02.865Z,12.53
2022-10-26T02:50:23.916Z,12.52
2022-10-26T02:50:44.962Z,12.52
2022-10-26T02:51:06.022Z,12.53
2022-10-26T02:51:27.107Z,12.53
2022-10-26T02:52:10.165Z,12.52
2022-10-26T02:52:31.200Z,12.53
2022-10-26T02:52:52.339Z,12.52
2022-10-26T02:53:13.397Z,12.52
2022-10-26T02:53:34.427Z,12.52
2022-10-26T02:53:55.489Z,12.52
2022-10-26T02:54:16.539Z,12.52
2022-10-26T02:54:37.613Z,12.52
2022-10-26T02:54:58.649Z,12.52
2022-10-26T02:55:19.699Z,12.52
2022-10-26T02:55:40.756Z,12.53
2022-10-26T02:56:01.814Z,12.53
2022-10-26T02:56:22.852Z,12.53
2022-10-26T02:56:43.906Z,12.53
2022-10-26T02:57:04.959Z,12.53
2022-10-26T02:57:26.015Z,12.53
2022-10-26T02:57:47.054Z,12.53
2022-10-26T02:58:08.129Z,12.52
2022-10-26T02:58:29.274Z,12.53
2022-10-26T02:58:50.320Z,12.53
2022-10-26T02:59:11.375Z,12.53
2022-10-26T02:59:32.433Z,12.53
2022-10-26T02:59:53.497Z,12.54
2022-10-26T03:00:14.623Z,12.54
2022-10-26T03:00:35.624Z,12.54
2022-10-26T03:00:56.670Z,12.54
2022-10-26T03:01:17.761Z,12.54
2022-10-26T03:01:38.843Z,12.54
2022-10-26T03:01:59.872Z,12.54
2022-10-26T03:02:20.904Z,12.54
2022-10-26T03:02:43.562Z,12.54
2022-10-26T03:03:07.217Z,12.55
2022-10-26T03:03:28.382Z,12.54
2022-10-26T03:03:49.544Z,12.54
2022-10-26T03:04:10.693Z,12.54
2022-10-26T03:04:31.766Z,12.54
2022-10-26T03:04:52.808Z,12.54
2022-10-26T03:05:13.861Z,12.55
2022-10-26T03:05:34.908Z,12.54
2022-10-26T03:05:55.956Z,12.53
2022-10-26T03:06:17.000Z,12.54
2022-10-26T03:06:38.049Z,12.53
2022-10-26T03:06:59.106Z,12.54
2022-10-26T03:07:20.159Z,12.54
2022-10-26T03:07:41.210Z,12.54
2022-10-26T03:08:02.259Z,12.54
2022-10-26T03:08:23.483Z,12.54
2022-10-26T03:08:44.499Z,12.54
2022-10-26T03:09:05.549Z,12.54
2022-10-26T03:09:26.620Z,12.54
2022-10-26T03:09:47.668Z,12.53
2022-10-26T03:10:08.698Z,12.54
2022-10-26T03:10:29.747Z,12.54
2022-10-26T03:10:50.794Z,12.54
2022-10-26T03:11:11.849Z,12.54
2022-10-26T03:11:32.899Z,12.54
2022-10-26T03:11:53.985Z,12.54
2022-10-26T03:12:15.030Z,12.54
2022-10-26T03:12:36.083Z,12.54
2022-10-26T03:12:57.136Z,12.53
2022-10-26T03:13:18.183Z,12.54
2022-10-26T03:13:39.251Z,12.54
2022-10-26T03:14:00.307Z,12.53
2022-10-26T03:14:21.347Z,12.54
2022-10-26T03:14:42.407Z,12.54
2022-10-26T03:15:03.447Z,12.54
2022-10-26T03:15:24.507Z,12.53
2022-10-26T03:15:45.557Z,12.53
2022-10-26T03:16:06.632Z,12.53
2022-10-26T03:16:27.664Z,12.54
2022-10-26T03:16:48.773Z,12.54
2022-10-26T03:17:09.816Z,12.54
2022-10-26T03:17:30.863Z,12.53
2022-10-26T03:17:52.162Z,12.53
2022-10-26T03:18:13.270Z,12.53
2022-10-26T03:18:34.317Z,12.53
2022-10-26T03:18:55.491Z,12.54
2022-10-26T03:19:16.561Z,12.54
2022-10-26T03:19:37.600Z,12.53
2022-10-26T03:19:58.684Z,12.54
2022-10-26T03:20:19.720Z,12.54
2022-10-26T03:20:40.764Z,12.54
2022-10-26T03:21:01.813Z,12.54
2022-10-26T03:21:22.870Z,12.54
2022-10-26T03:21:43.913Z,12.55
2022-10-26T03:22:04.961Z,12.54
2022-10-26T03:22:26.031Z,12.54
2022-10-26T03:22:47.071Z,12.54
2022-10-26T03:23:08.161Z,12.54
2022-10-26T03:23:29.169Z,12.54
2022-10-26T03:23:50.223Z,12.54
2022-10-26T03:24:11.275Z,12.53
2022-10-26T03:24:32.322Z,12.54
2022-10-26T03:24:53.378Z,12.55
2022-10-26T03:25:14.427Z,12.54
2022-10-26T03:25:35.477Z,12.54
2022-10-26T03:25:56.543Z,12.54
2022-10-26T03:26:17.596Z,12.53
2022-10-26T03:26:38.639Z,12.53
2022-10-26T03:27:02.162Z,12.52
2022-10-26T03:27:23.618Z,12.53
2022-10-26T03:27:44.728Z,12.52
2022-10-26T03:28:05.753Z,12.53
2022-10-26T03:28:26.815Z,12.52
2022-10-26T03:28:47.852Z,12.52
2022-10-26T03:29:08.904Z,12.52
2022-10-26T03:29:29.981Z,12.51
2022-10-26T03:29:51.051Z,12.51
2022-10-26T03:30:12.129Z,12.51
2022-10-26T03:30:33.144Z,12.51
2022-10-26T03:30:54.217Z,12.52
2022-10-26T03:31:15.248Z,12.51
2022-10-26T03:31:36.295Z,12.50
2022-10-26T03:31:57.377Z,12.50
2022-10-26T03:32:18.418Z,12.50
2022-10-26T03:32:39.470Z,12.50
2022-10-26T03:33:00.519Z,12.50
2022-10-26T03:33:25.539Z,12.50
2022-10-26T03:33:48.564Z,12.50
2022-10-26T03:34:09.595Z,12.50
2022-10-26T03:34:30.695Z,12.48
2022-10-26T03:34:51.788Z,12.49
2022-10-26T03:35:12.819Z,12.50
2022-10-26T03:35:33.877Z,12.50
2022-10-26T03:35:54.944Z,12.49
2022-10-26T03:36:15.985Z,12.49
2022-10-26T03:36:37.035Z,12.49
2022-10-26T03:36:58.141Z,12.49
2022-10-26T03:37:19.146Z,12.48
2022-10-26T03:37:40.204Z,12.48
2022-10-26T03:38:01.252Z,12.48
2022-10-26T03:38:22.305Z,12.49
2022-10-26T03:38:43.357Z,12.49
2022-10-26T03:39:04.418Z,12.48
2022-10-26T03:39:25.488Z,12.49
2022-10-26T03:39:46.646Z,12.48
2022-10-26T03:40:07.714Z,12.47
2022-10-26T03:40:28.779Z,12.48
2022-10-26T03:40:49.818Z,12.48
2022-10-26T03:41:10.887Z,12.48
2022-10-26T03:41:31.929Z,12.48
2022-10-26T03:42:14.986Z,12.48
2022-10-26T03:42:36.069Z,12.48
2022-10-26T03:42:57.085Z,12.48
2022-10-26T03:43:18.146Z,12.48
2022-10-26T03:43:39.192Z,12.48
2022-10-26T03:44:00.265Z,12.48
2022-10-26T03:44:21.337Z,12.48
2022-10-26T03:44:42.364Z,12.48
2022-10-26T03:45:03.437Z,12.48
2022-10-26T03:45:24.486Z,12.48
2022-10-26T03:45:45.538Z,12.49
2022-10-26T03:46:06.588Z,12.49
2022-10-26T03:46:27.665Z,12.48
2022-10-26T03:46:48.697Z,12.49
2022-10-26T03:47:09.752Z,12.49
2022-10-26T03:47:30.803Z,12.48
2022-10-26T03:47:51.850Z,12.48
2022-10-26T03:48:12.906Z,12.48
2022-10-26T03:48:33.951Z,12.48
2022-10-26T03:48:55.003Z,12.48
2022-10-26T03:49:16.049Z,12.47
2022-10-26T03:49:37.128Z,12.47
2022-10-26T03:49:58.556Z,12.48
2022-10-26T03:50:19.737Z,12.47
2022-10-26T03:50:40.792Z,12.47
2022-10-26T03:51:01.842Z,12.47
2022-10-26T03:51:22.879Z,12.48
2022-10-26T03:51:43.941Z,12.48
2022-10-26T03:52:04.987Z,12.47
2022-10-26T03:52:26.043Z,12.47
2022-10-26T03:52:47.419Z,12.47
2022-10-26T03:53:08.597Z,12.47
2022-10-26T03:53:29.648Z,12.48
2022-10-26T03:53:50.698Z,12.47
2022-10-26T03:54:11.750Z,12.48
2022-10-26T03:54:32.801Z,12.48
2022-10-26T03:54:53.864Z,12.47
2022-10-26T03:55:14.898Z,12.48
2022-10-26T03:55:36.003Z,12.48
2022-10-26T03:55:57.021Z,12.47
2022-10-26T03:56:18.069Z,12.48
2022-10-26T03:56:39.115Z,12.48
2022-10-26T03:57:00.164Z,12.48
2022-10-26T03:57:21.211Z,12.47
2022-10-26T03:57:42.290Z,12.48
2022-10-26T03:58:03.322Z,12.48
2022-10-26T03:58:45.527Z,12.48
2022-10-26T03:59:06.576Z,12.47
2022-10-26T03:59:27.625Z,12.48
2022-10-26T03:59:48.693Z,12.48
2022-10-26T04:00:09.795Z,12.48
2022-10-26T04:00:30.827Z,12.49
2022-10-26T04:00:51.880Z,12.48
2022-10-26T04:01:12.975Z,12.49
2022-10-26T04:01:34.036Z,12.49
2022-10-26T04:01:57.679Z,12.48
2022-10-26T04:02:19.117Z,12.49
2022-10-26T04:02:40.166Z,12.49
2022-10-26T04:03:01.213Z,12.49
2022-10-26T04:03:22.392Z,12.48
2022-10-26T04:03:43.450Z,12.49
2022-10-26T04:04:04.573Z,12.50
2022-10-26T04:04:25.741Z,12.50
2022-10-26T04:04:46.841Z,12.50
2022-10-26T04:05:07.870Z,12.51
2022-10-26T04:05:28.916Z,12.51
2022-10-26T04:05:49.984Z,12.51
2022-10-26T04:06:11.034Z,12.52
2022-10-26T04:06:32.087Z,12.52
2022-10-26T04:06:53.160Z,12.52
2022-10-26T04:07:14.225Z,12.53
2022-10-26T04:07:35.250Z,12.52
2022-10-26T04:07:56.304Z,12.53
2022-10-26T04:08:17.465Z,12.53
2022-10-26T04:08:38.512Z,12.53
2022-10-26T04:08:59.573Z,12.54
2022-10-26T04:09:20.620Z,12.54
2022-10-26T04:09:41.675Z,12.54
2022-10-26T04:10:02.726Z,12.54
2022-10-26T04:10:23.793Z,12.54
2022-10-26T04:10:44.844Z,12.54
2022-10-26T04:11:05.878Z,12.54
2022-10-26T04:11:26.950Z,12.55
2022-10-26T04:11:47.991Z,12.55
2022-10-26T04:12:09.046Z,12.56
2022-10-26T04:12:30.098Z,12.55
2022-10-26T04:12:51.214Z,12.56
2022-10-26T04:13:12.223Z,12.56
2022-10-26T04:13:33.278Z,12.55
2022-10-26T04:13:54.340Z,12.55
2022-10-26T04:14:15.381Z,12.56
2022-10-26T04:14:36.431Z,12.56
2022-10-26T04:14:57.509Z,12.56
2022-10-26T04:15:18.548Z,12.56
2022-10-26T04:15:39.626Z,12.57
2022-10-26T04:16:00.688Z,12.58
2022-10-26T04:16:21.760Z,12.57
2022-10-26T04:16:42.802Z,12.57
2022-10-26T04:17:03.853Z,12.57
2022-10-26T04:17:24.904Z,12.57
2022-10-26T04:17:46.086Z,12.57
2022-10-26T04:18:07.173Z,12.57
2022-10-26T04:18:28.250Z,12.57
2022-10-26T04:18:49.314Z,12.57
2022-10-26T04:19:10.355Z,12.57
2022-10-26T04:19:31.400Z,12.57
2022-10-26T04:19:52.480Z,12.56
2022-10-26T04:20:13.512Z,12.56
2022-10-26T04:20:34.560Z,12.56
2022-10-26T04:20:55.614Z,12.57
2022-10-26T04:21:16.668Z,12.56
2022-10-26T04:21:37.726Z,12.56
2022-10-26T04:21:58.777Z,12.56
2022-10-26T04:22:19.832Z,12.56
2022-10-26T04:22:40.881Z,12.56
2022-10-26T04:23:01.924Z,12.56
2022-10-26T04:23:22.983Z,12.55
2022-10-26T04:23:44.260Z,12.55
2022-10-26T04:24:05.306Z,12.56
2022-10-26T04:24:26.353Z,12.55
2022-10-26T04:24:47.400Z,12.56
2022-10-26T04:25:08.454Z,12.55
2022-10-26T04:25:32.657Z,12.55
2022-10-26T04:25:54.380Z,12.56
2022-10-26T04:26:15.435Z,12.55
2022-10-26T04:26:36.490Z,12.54
2022-10-26T04:26:57.536Z,12.54
2022-10-26T04:27:18.583Z,12.54
2022-10-26T04:27:39.646Z,12.54
2022-10-26T04:28:00.689Z,12.54
2022-10-26T04:28:21.779Z,12.53
2022-10-26T04:28:42.806Z,12.52
2022-10-26T04:29:03.961Z,12.53
2022-10-26T04:29:25.022Z,12.52
2022-10-26T04:29:46.082Z,12.52
2022-10-26T04:30:07.131Z,12.52
2022-10-26T04:30:28.178Z,12.51
2022-10-26T04:30:49.218Z,12.51
2022-10-26T04:31:10.289Z,12.51
2022-10-26T04:31:31.370Z,12.51
2022-10-26T04:31:52.392Z,12.50
2022-10-26T04:32:13.432Z,12.51
2022-10-26T04:32:34.495Z,12.50
2022-10-26T04:32:55.579Z,12.49
2022-10-26T04:33:16.623Z,12.49
2022-10-26T04:33:37.687Z,12.49
2022-10-26T04:33:58.729Z,12.49
2022-10-26T04:34:19.792Z,12.48
2022-10-26T04:34:40.903Z,12.48